Time;durP1;ratioP1;P1;durP2;ratioP2;P2;SDS_P1;SDS_P2;PMS_P1;PMS_P2;Temp;Humidity;BMP_temperature;BMP_pressure;BME280_temperature;BME280_humidity;BME280_pressure;Samples;Min_cycle;Max_cycle;Signal;HPM_P1;HPM_P2
2022/09/09 00:02:17;;;;;;;10.82;6.00;;;15.20;99.90;;;;;;5046836;28;20079;-68
2022/09/09 00:04:54;;;;;;;12.23;6.60;;;15.20;99.90;;;;;;5058752;28;20780;-68
2022/09/09 00:07:52;;;;;;;12.80;6.07;;;15.20;99.90;;;;;;5061995;28;20049;-68
2022/09/09 00:10:41;;;;;;;18.27;6.93;;;15.10;99.90;;;;;;4998119;28;20065;-68
2022/09/09 00:13:19;;;;;;;11.55;6.57;;;15.10;99.90;;;;;;5050240;28;20037;-68
2022/09/09 00:16:04;;;;;;;14.05;7.80;;;15.10;99.90;;;;;;5050429;28;20108;-68
2022/09/09 00:18:36;;;;;;;11.88;6.97;;;15.00;99.90;;;;;;5070324;28;20125;-68
2022/09/09 00:21:07;;;;;;;16.33;7.60;;;15.00;99.90;;;;;;5056245;28;20123;-68
2022/09/09 00:23:36;;;;;;;13.52;6.85;;;15.00;99.90;;;;;;5074658;28;20056;-68
2022/09/09 00:26:29;;;;;;;13.18;6.82;;;15.00;99.90;;;;;;5058241;28;20036;-68
2022/09/09 00:29:00;;;;;;;11.57;6.13;;;14.90;99.90;;;;;;5066125;28;20049;-69
2022/09/09 00:31:31;;;;;;;15.50;6.68;;;14.90;99.90;;;;;;5064724;28;20109;-69
2022/09/09 00:34:11;;;;;;;9.77;6.28;;;14.90;99.90;;;;;;5062848;28;20501;-69
2022/09/09 00:36:37;;;;;;;11.10;6.30;;;14.90;99.90;;;;;;5064775;28;20413;-68
2022/09/09 00:39:04;;;;;;;11.63;6.70;;;14.90;99.90;;;;;;5060778;28;20045;-68
2022/09/09 00:41:50;;;;;;;13.60;6.85;;;14.80;99.90;;;;;;5058820;28;20157;-69
2022/09/09 00:44:35;;;;;;;14.80;6.90;;;14.80;99.90;;;;;;5055684;28;20094;-69
2022/09/09 00:47:35;;;;;;;11.13;6.90;;;14.90;99.90;;;;;;5050110;28;20055;-68
2022/09/09 00:50:03;;;;;;;10.07;7.13;;;14.80;99.90;;;;;;5055240;28;20145;-68
2022/09/09 00:52:54;;;;;;;10.90;6.30;;;14.80;99.90;;;;;;5053797;28;20592;-68
2022/09/09 00:55:40;;;;;;;10.43;6.78;;;14.80;99.90;;;;;;5048794;28;20044;-68
2022/09/09 00:58:08;;;;;;;9.20;6.20;;;14.70;99.90;;;;;;5037734;28;20409;-69
2022/09/09 01:00:57;;;;;;;10.57;6.30;;;14.70;99.90;;;;;;5033358;28;20055;-69
2022/09/09 01:03:33;;;;;;;13.45;7.13;;;14.70;99.90;;;;;;5058100;28;20040;-68
2022/09/09 01:06:17;;;;;;;14.70;6.80;;;14.70;99.90;;;;;;5054881;28;20259;-69
2022/09/09 01:09:10;;;;;;;8.63;6.68;;;14.70;99.90;;;;;;5050438;28;20051;-68
2022/09/09 01:12:06;;;;;;;10.13;6.03;;;14.60;99.90;;;;;;5059070;28;20051;-68
2022/09/09 01:14:34;;;;;;;13.32;6.95;;;14.60;99.90;;;;;;5046586;28;20102;-68
2022/09/09 01:17:09;;;;;;;9.75;5.90;;;14.60;99.90;;;;;;5058646;28;20293;-68
2022/09/09 01:19:44;;;;;;;14.40;6.50;;;14.60;99.90;;;;;;5057389;28;20055;-69
2022/09/09 01:22:33;;;;;;;12.07;6.25;;;14.60;99.90;;;;;;5054268;28;21419;-68
2022/09/09 01:25:16;;;;;;;13.98;6.43;;;14.50;99.90;;;;;;5051175;28;20071;-68
2022/09/09 01:27:46;;;;;;;16.55;6.90;;;14.50;99.90;;;;;;5055189;28;20059;-68
2022/09/09 01:30:15;;;;;;;11.02;6.88;;;14.50;99.90;;;;;;5055726;28;21715;-68
2022/09/09 01:32:50;;;;;;;16.65;7.82;;;14.50;99.90;;;;;;5057364;28;20033;-68
2022/09/09 01:35:38;;;;;;;9.35;6.30;;;14.50;99.90;;;;;;5054694;28;20099;-69
2022/09/09 01:38:04;;;;;;;9.45;5.82;;;14.50;99.90;;;;;;5056960;28;20072;-68
2022/09/09 01:40:30;;;;;;;13.02;5.97;;;14.40;99.90;;;;;;5056226;28;20044;-68
2022/09/09 01:42:56;;;;;;;10.02;5.72;;;14.40;99.90;;;;;;5056020;28;20674;-68
2022/09/09 01:45:23;;;;;;;11.98;6.63;;;14.40;99.90;;;;;;5054414;28;20048;-68
2022/09/09 01:47:51;;;;;;;9.60;6.10;;;14.40;99.90;;;;;;5057023;28;20382;-68
2022/09/09 01:50:17;;;;;;;8.95;6.43;;;14.40;99.90;;;;;;5055104;28;20167;-68
2022/09/09 01:52:48;;;;;;;12.40;6.85;;;14.40;99.90;;;;;;5068753;28;20353;-68
2022/09/09 01:55:14;;;;;;;13.05;6.05;;;14.40;99.90;;;;;;5056263;28;20060;-68
2022/09/09 01:58:01;;;;;;;9.75;5.60;;;14.30;99.90;;;;;;5055366;28;20128;-68
2022/09/09 02:00:28;;;;;;;12.43;6.15;;;14.30;99.90;;;;;;5062374;28;20033;-68
2022/09/09 02:03:24;;;;;;;11.50;6.53;;;14.30;99.90;;;;;;5061922;28;20052;-68
2022/09/09 02:06:09;;;;;;;10.57;6.25;;;14.40;99.90;;;;;;5060779;28;20074;-68
2022/09/09 02:08:46;;;;;;;15.35;7.90;;;14.30;99.90;;;;;;5056308;28;20481;-68
2022/09/09 02:11:18;;;;;;;10.63;7.47;;;14.30;99.90;;;;;;5058632;28;20071;-68
2022/09/09 02:13:46;;;;;;;9.65;6.88;;;14.50;99.90;;;;;;5064920;28;20048;-68
2022/09/09 02:16:35;;;;;;;11.75;6.80;;;14.30;99.90;;;;;;5059258;28;20139;-68
2022/09/09 02:19:09;;;;;;;15.88;8.85;;;14.30;99.90;;;;;;5056294;28;20075;-69
2022/09/09 02:21:36;;;;;;;13.73;7.63;;;14.30;99.90;;;;;;5058719;28;20067;-69
2022/09/09 02:24:05;;;;;;;13.07;8.10;;;14.40;99.90;;;;;;5058998;28;20450;-68
2022/09/09 02:26:33;;;;;;;14.05;9.13;;;14.30;99.90;;;;;;5051376;28;20139;-68
2022/09/09 02:29:04;;;;;;;12.68;7.70;;;14.30;99.90;;;;;;5059065;28;20053;-68
2022/09/09 02:31:32;;;;;;;14.18;8.80;;;14.30;99.90;;;;;;5061751;28;20044;-68
2022/09/09 02:34:00;;;;;;;16.65;9.00;;;14.40;99.90;;;;;;5062462;28;20040;-68
2022/09/09 02:36:30;;;;;;;16.48;9.07;;;14.30;99.90;;;;;;5038065;28;20072;-68
2022/09/09 02:38:56;;;;;;;16.02;8.52;;;14.30;99.90;;;;;;5039607;28;20144;-68
2022/09/09 02:41:33;;;;;;;15.07;8.85;;;14.30;99.90;;;;;;5040241;28;20048;-68
2022/09/09 02:43:59;;;;;;;18.45;9.18;;;14.30;99.90;;;;;;5076235;28;20366;-69
2022/09/09 02:47:15;;;;;;;15.18;8.82;;;14.30;99.90;;;;;;5066312;28;20094;-68
2022/09/09 02:49:59;;;;;;;12.30;8.60;;;14.30;99.90;;;;;;4999427;28;20050;-68
2022/09/09 02:52:42;;;;;;;14.48;9.30;;;14.30;99.90;;;;;;5057698;28;20045;-68
2022/09/09 02:55:29;;;;;;;17.27;9.70;;;14.30;99.90;;;;;;5048135;28;20056;-68
2022/09/09 02:57:56;;;;;;;14.43;8.75;;;14.30;99.90;;;;;;5066493;28;20052;-68
2022/09/09 03:00:28;;;;;;;19.02;9.07;;;14.40;99.90;;;;;;5062016;28;20056;-68
2022/09/09 03:02:55;;;;;;;12.30;9.07;;;14.30;99.90;;;;;;5078921;28;20056;-68
2022/09/09 03:05:21;;;;;;;20.10;8.85;;;14.50;99.90;;;;;;5067675;28;20545;-68
2022/09/09 03:07:47;;;;;;;14.95;9.38;;;14.50;99.90;;;;;;5063044;28;20032;-68
2022/09/09 03:10:13;;;;;;;13.45;9.63;;;14.40;99.90;;;;;;5062331;28;20033;-68
2022/09/09 03:12:39;;;;;;;17.10;9.73;;;14.40;99.90;;;;;;5065456;28;20041;-68
2022/09/09 03:15:06;;;;;;;18.30;9.63;;;14.40;99.90;;;;;;5064324;28;20094;-68
2022/09/09 03:17:34;;;;;;;19.13;9.45;;;14.40;99.90;;;;;;5060908;28;20072;-68
2022/09/09 03:19:59;;;;;;;16.90;9.93;;;14.40;99.90;;;;;;5064606;28;20524;-68
2022/09/09 03:22:25;;;;;;;16.98;9.27;;;14.40;99.90;;;;;;5065266;28;20111;-68
2022/09/09 03:24:51;;;;;;;17.58;10.27;;;14.40;99.90;;;;;;5064872;28;20036;-69
2022/09/09 03:27:19;;;;;;;16.25;9.63;;;14.50;99.90;;;;;;5074557;28;20059;-68
2022/09/09 03:29:45;;;;;;;15.40;9.70;;;14.40;99.90;;;;;;5065806;28;20048;-67
2022/09/09 03:32:12;;;;;;;15.32;9.48;;;14.40;99.90;;;;;;5066293;28;20460;-68
2022/09/09 03:34:40;;;;;;;19.98;10.40;;;14.40;99.90;;;;;;5060805;28;20119;-68
2022/09/09 03:37:06;;;;;;;16.30;8.65;;;14.40;99.90;;;;;;5065592;28;20711;-68
2022/09/09 03:39:31;;;;;;;16.05;9.02;;;14.40;99.90;;;;;;5045121;28;20428;-68
2022/09/09 03:41:57;;;;;;;13.32;8.52;;;14.40;99.90;;;;;;5065234;28;20037;-68
2022/09/09 03:44:23;;;;;;;16.10;8.50;;;14.50;99.90;;;;;;5061912;28;20451;-68
2022/09/09 03:46:49;;;;;;;13.27;8.18;;;14.40;99.90;;;;;;5066566;28;20048;-68
2022/09/09 03:49:15;;;;;;;12.68;7.53;;;14.40;99.90;;;;;;5066860;28;20401;-68
2022/09/09 03:51:41;;;;;;;12.85;7.30;;;14.40;99.90;;;;;;5067506;28;20451;-69
2022/09/09 03:54:09;;;;;;;13.45;7.03;;;14.40;99.90;;;;;;5058152;28;20029;-68
2022/09/09 03:56:36;;;;;;;15.45;7.60;;;14.40;99.90;;;;;;5067082;28;20413;-68
2022/09/09 03:59:02;;;;;;;14.43;7.25;;;14.40;99.90;;;;;;5066136;28;20055;-68
2022/09/09 04:01:28;;;;;;;13.70;6.80;;;14.40;99.90;;;;;;5065897;28;20123;-68
2022/09/09 04:03:57;;;;;;;10.40;7.00;;;14.40;99.90;;;;;;5056741;28;20123;-68
2022/09/09 04:06:26;;;;;;;11.75;6.97;;;14.40;99.90;;;;;;5060228;28;20045;-68
2022/09/09 04:08:52;;;;;;;13.32;7.53;;;14.40;99.90;;;;;;5045394;28;20047;-68
2022/09/09 04:11:18;;;;;;;12.23;6.65;;;14.50;99.90;;;;;;5064837;28;20400;-68
2022/09/09 04:13:44;;;;;;;10.73;6.15;;;14.40;99.90;;;;;;5058655;28;20146;-68
2022/09/09 04:16:12;;;;;;;12.57;6.93;;;14.40;99.90;;;;;;5055397;28;20152;-67
2022/09/09 04:18:38;;;;;;;12.13;6.15;;;14.40;99.90;;;;;;5054357;28;20463;-67
2022/09/09 04:21:05;;;;;;;10.13;6.45;;;14.40;99.90;;;;;;5040525;28;20124;-67
2022/09/09 04:23:30;;;;;;;10.48;6.35;;;14.50;99.90;;;;;;5056241;28;20044;-67
2022/09/09 04:25:58;;;;;;;9.48;5.80;;;14.50;99.90;;;;;;5077084;28;20044;-68
2022/09/09 04:28:27;;;;;;;13.55;6.22;;;14.50;99.90;;;;;;5062997;28;20124;-67
2022/09/09 04:30:56;;;;;;;13.18;6.40;;;14.50;99.90;;;;;;5062066;28;20040;-68
2022/09/09 04:33:28;;;;;;;10.32;5.90;;;14.50;99.90;;;;;;5053147;28;20051;-68
2022/09/09 04:35:53;;;;;;;;;;;14.50;99.90;;;;;;5065133;28;20127;-68
2022/09/09 04:38:22;;;;;;;9.98;6.00;;;14.50;99.90;;;;;;5050025;28;20559;-68
2022/09/09 04:40:49;;;;;;;14.85;7.30;;;14.50;99.90;;;;;;5048799;28;20036;-68
2022/09/09 04:43:15;;;;;;;10.13;6.55;;;14.50;99.90;;;;;;5050180;28;20044;-68
2022/09/09 04:45:41;;;;;;;12.07;6.35;;;14.50;99.90;;;;;;5068354;28;20104;-68
2022/09/09 04:48:09;;;;;;;14.93;6.68;;;14.60;99.90;;;;;;5054414;28;20462;-68
2022/09/09 04:50:35;;;;;;;12.73;6.18;;;14.50;99.90;;;;;;5049428;28;20086;-68
2022/09/09 04:53:05;;;;;;;11.73;6.97;;;14.50;99.90;;;;;;5052428;28;20041;-69
2022/09/09 04:55:31;;;;;;;15.02;7.13;;;14.50;99.90;;;;;;5050385;28;20037;-69
2022/09/09 04:57:57;;;;;;;11.60;6.53;;;14.50;99.90;;;;;;5048366;28;20095;-69
2022/09/09 05:00:24;;;;;;;9.85;5.93;;;14.50;99.90;;;;;;5049372;28;20032;-69
2022/09/09 05:02:50;;;;;;;14.25;7.32;;;14.50;99.90;;;;;;5057225;28;20404;-69
2022/09/09 05:05:16;;;;;;;14.23;6.85;;;14.50;99.90;;;;;;5056583;28;20071;-69
2022/09/09 05:07:43;;;;;;;13.68;7.25;;;14.50;99.90;;;;;;5059299;28;20048;-68
2022/09/09 05:10:10;;;;;;;17.25;8.18;;;14.50;99.90;;;;;;5058551;28;20032;-68
2022/09/09 05:12:36;;;;;;;12.68;7.78;;;14.60;99.90;;;;;;5052313;28;20044;-68
2022/09/09 05:15:01;;;;;;;15.55;7.75;;;14.50;99.90;;;;;;5056963;28;20036;-68
2022/09/09 05:17:27;;;;;;;12.20;8.02;;;14.50;99.90;;;;;;5060384;28;20041;-68
2022/09/09 05:19:56;;;;;;;16.55;7.60;;;14.50;99.90;;;;;;5056686;28;20044;-68
2022/09/09 05:22:23;;;;;;;15.10;8.13;;;14.50;99.90;;;;;;5054835;28;20049;-68
2022/09/09 05:24:51;;;;;;;12.80;7.90;;;14.50;99.90;;;;;;5060896;28;20044;-68
2022/09/09 05:27:19;;;;;;;11.93;7.38;;;14.50;99.90;;;;;;5061473;28;20048;-68
2022/09/09 05:29:45;;;;;;;13.52;7.90;;;14.50;99.90;;;;;;5063565;28;20037;-68
2022/09/09 05:32:11;;;;;;;15.07;8.48;;;14.50;99.90;;;;;;5060700;28;20492;-68
2022/09/09 05:34:37;;;;;;;12.63;8.73;;;14.50;99.90;;;;;;5060159;28;20102;-68
2022/09/09 05:37:04;;;;;;;14.57;8.13;;;14.50;99.90;;;;;;5063668;28;20401;-68
2022/09/09 05:39:30;;;;;;;14.65;8.80;;;14.50;99.90;;;;;;5064008;28;20118;-68
2022/09/09 05:41:55;;;;;;;16.52;8.32;;;14.50;99.90;;;;;;5057510;28;20052;-68
2022/09/09 05:44:23;;;;;;;15.27;8.80;;;14.50;99.90;;;;;;5062955;28;20413;-68
2022/09/09 05:46:49;;;;;;;14.13;9.25;;;14.60;99.90;;;;;;5053260;28;20578;-68
2022/09/09 05:49:15;;;;;;;15.02;9.02;;;14.50;99.90;;;;;;5054564;28;20036;-68
2022/09/09 05:51:42;;;;;;;17.30;9.65;;;14.60;99.90;;;;;;5054439;28;20048;-68
2022/09/09 05:54:08;;;;;;;18.25;9.35;;;14.60;99.90;;;;;;5059501;28;20075;-68
2022/09/09 05:56:34;;;;;;;13.18;9.50;;;14.60;99.90;;;;;;5057075;28;20117;-68
2022/09/09 05:59:00;;;;;;;14.68;9.63;;;14.50;99.90;;;;;;5056738;28;20057;-67
2022/09/09 06:01:32;;;;;;;13.40;9.63;;;14.50;99.90;;;;;;5052035;28;20497;-67
2022/09/09 06:03:58;;;;;;;15.38;10.10;;;14.60;99.90;;;;;;5058994;28;20040;-68
2022/09/09 06:06:26;;;;;;;14.98;9.65;;;14.60;99.90;;;;;;5059741;28;20047;-69
2022/09/09 06:08:54;;;;;;;16.55;10.07;;;14.60;99.90;;;;;;5055176;28;20114;-68
2022/09/09 06:11:27;;;;;;;13.30;9.10;;;14.50;99.90;;;;;;5054802;28;20564;-69
2022/09/09 06:13:57;;;;;;;16.27;9.90;;;14.70;99.90;;;;;;5058373;28;20094;-68
2022/09/09 06:16:26;;;;;;;13.75;8.88;;;14.60;99.90;;;;;;5058160;28;20094;-68
2022/09/09 06:18:54;;;;;;;18.05;10.75;;;14.60;99.90;;;;;;5074371;28;20055;-68
2022/09/09 06:21:40;;;;;;;15.02;9.32;;;14.60;99.90;;;;;;5059066;28;20052;-68
2022/09/09 06:24:07;;;;;;;15.63;9.55;;;14.60;99.90;;;;;;5060764;28;20157;-68
2022/09/09 06:26:35;;;;;;;17.10;9.45;;;14.60;99.90;;;;;;5059912;28;20142;-69
2022/09/09 06:29:03;;;;;;;14.13;8.95;;;14.70;99.90;;;;;;5071542;28;20032;-68
2022/09/09 06:31:30;;;;;;;15.30;9.18;;;14.80;99.90;;;;;;5042201;28;20513;-68
2022/09/09 06:33:57;;;;;;;15.13;9.80;;;14.60;99.90;;;;;;5030180;28;20055;-68
2022/09/09 06:36:28;;;;;;;15.55;9.43;;;14.70;99.90;;;;;;5058290;28;20045;-68
2022/09/09 06:38:55;;;;;;;14.80;9.00;;;14.70;99.90;;;;;;5079418;28;20556;-68
2022/09/09 06:41:25;;;;;;;13.93;8.88;;;14.60;99.90;;;;;;5061811;28;20459;-68
2022/09/09 06:43:51;;;;;;;14.93;9.18;;;14.70;99.90;;;;;;5060354;28;20127;-68
2022/09/09 06:46:21;;;;;;;12.63;8.32;;;14.70;99.90;;;;;;5058147;28;20484;-68
2022/09/09 06:48:47;;;;;;;13.48;7.85;;;14.70;99.90;;;;;;5061100;28;20051;-68
2022/09/09 06:51:18;;;;;;;14.73;8.25;;;14.80;99.90;;;;;;5061950;28;20040;-69
2022/09/09 06:53:45;;;;;;;14.90;9.07;;;14.80;99.90;;;;;;5064491;28;20123;-69
2022/09/09 06:56:11;;;;;;;13.02;8.13;;;14.80;99.90;;;;;;5061009;28;20123;-69
2022/09/09 06:58:42;;;;;;;12.77;8.25;;;14.80;99.90;;;;;;5060223;28;20053;-68
2022/09/09 07:01:09;;;;;;;12.75;7.72;;;14.90;99.90;;;;;;5058167;28;20522;-68
2022/09/09 07:03:35;;;;;;;14.82;8.43;;;14.80;99.90;;;;;;5058124;28;20044;-68
2022/09/09 07:06:01;;;;;;;15.35;8.27;;;14.80;99.90;;;;;;5054703;28;20495;-68
2022/09/09 07:08:28;;;;;;;13.23;7.85;;;14.80;99.90;;;;;;5055199;28;21932;-69
2022/09/09 07:10:54;;;;;;;11.27;7.72;;;14.80;99.90;;;;;;5061340;28;20456;-68
2022/09/09 07:13:27;;;;;;;13.88;8.98;;;14.80;99.90;;;;;;5061641;28;20049;-68
2022/09/09 07:15:53;;;;;;;14.57;9.18;;;14.80;99.90;;;;;;5062212;28;20059;-69
2022/09/09 07:18:20;;;;;;;13.55;8.27;;;14.80;99.90;;;;;;5059397;28;20448;-69
2022/09/09 07:20:56;;;;;;;16.10;8.30;;;14.90;99.90;;;;;;5060177;28;20103;-68
2022/09/09 07:23:23;;;;;;;12.68;6.90;;;14.90;99.90;;;;;;5044428;28;20521;-67
2022/09/09 07:25:50;;;;;;;16.17;7.97;;;14.90;99.90;;;;;;5061463;28;20044;-68
2022/09/09 07:28:16;;;;;;;13.63;7.47;;;14.90;99.90;;;;;;5058898;28;20116;-69
2022/09/09 07:30:42;;;;;;;10.98;8.00;;;15.00;99.90;;;;;;5057656;28;20497;-69
2022/09/09 07:33:09;;;;;;;11.23;7.53;;;15.00;99.90;;;;;;5060293;28;20055;-69
2022/09/09 07:35:36;;;;;;;11.98;7.93;;;15.00;99.90;;;;;;5061451;28;20043;-68
2022/09/09 07:38:04;;;;;;;11.88;7.40;;;15.00;99.90;;;;;;5058545;28;20052;-69
2022/09/09 07:40:30;;;;;;;10.50;7.30;;;15.10;99.90;;;;;;5068052;28;20135;-68
2022/09/09 07:42:55;;;;;;;11.82;7.80;;;15.20;99.90;;;;;;5055018;28;20045;-68
2022/09/09 07:45:21;;;;;;;10.98;7.35;;;15.30;99.90;;;;;;5036870;28;20048;-68
2022/09/09 07:47:48;;;;;;;9.93;6.65;;;15.30;99.90;;;;;;5059302;28;20444;-68
2022/09/09 07:50:14;;;;;;;12.45;7.03;;;15.30;99.90;;;;;;5059008;28;20405;-68
2022/09/09 07:52:40;;;;;;;17.25;7.55;;;15.40;99.90;;;;;;5061323;28;20051;-69
2022/09/09 07:55:06;;;;;;;11.30;6.65;;;15.40;99.90;;;;;;5058032;28;20044;-69
2022/09/09 07:57:32;;;;;;;11.60;6.90;;;15.50;99.90;;;;;;5051011;28;20090;-69
2022/09/09 07:59:58;;;;;;;14.40;6.40;;;15.50;99.90;;;;;;5035636;28;20656;-68
2022/09/09 08:02:25;;;;;;;9.73;6.20;;;15.50;99.90;;;;;;5056509;28;20125;-68
2022/09/09 08:04:51;;;;;;;11.15;6.65;;;15.50;99.90;;;;;;5071711;28;20090;-68
2022/09/09 08:07:17;;;;;;;11.98;6.03;;;15.50;99.90;;;;;;5060679;28;20458;-68
2022/09/09 08:09:43;;;;;;;14.95;6.40;;;15.60;99.90;;;;;;5060182;28;20123;-68
2022/09/09 08:12:12;;;;;;;13.70;6.45;;;15.60;99.90;;;;;;5053189;28;20044;-68
2022/09/09 08:14:39;;;;;;;11.35;6.40;;;15.60;99.90;;;;;;5054870;28;20048;-68
2022/09/09 08:17:05;;;;;;;11.13;6.05;;;15.70;99.90;;;;;;5056341;28;20194;-68
2022/09/09 08:19:35;;;;;;;11.13;6.43;;;15.70;99.90;;;;;;5058906;28;20143;-68
2022/09/09 08:22:02;;;;;;;8.88;5.07;;;15.70;99.90;;;;;;5054908;28;20040;-68
2022/09/09 08:24:28;;;;;;;14.52;6.60;;;15.70;99.90;;;;;;5059274;28;20541;-68
2022/09/09 08:26:56;;;;;;;11.38;5.82;;;15.80;99.90;;;;;;5057267;28;20041;-68
2022/09/09 08:29:22;;;;;;;9.38;5.47;;;15.80;99.90;;;;;;5034614;28;20041;-68
2022/09/09 08:31:51;;;;;;;12.18;5.65;;;15.80;99.90;;;;;;5050608;28;20079;-68
2022/09/09 08:34:19;;;;;;;10.52;5.72;;;15.90;99.90;;;;;;5061334;28;20086;-68
2022/09/09 08:36:46;;;;;;;10.38;5.20;;;15.90;99.90;;;;;;5060116;28;20119;-69
2022/09/09 08:39:14;;;;;;;9.75;5.45;;;16.00;99.90;;;;;;5053712;28;20113;-68
2022/09/09 08:42:02;;;;;;;12.30;5.32;;;16.00;99.90;;;;;;5057859;28;20399;-68
2022/09/09 08:44:37;;;;;;;8.65;5.07;;;16.10;99.90;;;;;;5056987;28;20485;-68
2022/09/09 08:47:25;;;;;;;10.45;5.07;;;16.10;99.90;;;;;;5057152;28;20048;-68
2022/09/09 08:50:00;;;;;;;11.73;4.95;;;16.20;99.90;;;;;;5043936;28;20507;-69
2022/09/09 08:52:30;;;;;;;9.88;4.97;;;16.20;99.90;;;;;;5058129;28;20179;-68
2022/09/09 08:55:23;;;;;;;11.73;5.40;;;16.30;99.90;;;;;;5060092;28;20735;-69
2022/09/09 08:57:53;;;;;;;11.93;5.25;;;16.30;99.90;;;;;;5059998;28;20489;-68
2022/09/09 09:00:20;;;;;;;10.75;4.70;;;16.50;99.90;;;;;;5053989;28;20132;-69
2022/09/09 09:03:06;;;;;;;9.05;5.07;;;16.60;99.90;;;;;;5059918;28;20127;-69
2022/09/09 09:05:50;;;;;;;10.38;4.45;;;16.70;99.90;;;;;;5054102;28;20121;-68
2022/09/09 09:08:37;;;;;;;11.02;4.85;;;16.80;99.90;;;;;;5058384;28;20036;-69
2022/09/09 09:11:05;;;;;;;11.93;4.68;;;17.10;99.90;;;;;;5061636;28;20044;-68
2022/09/09 09:13:39;;;;;;;11.90;4.72;;;17.30;99.90;;;;;;5060014;28;20466;-68
2022/09/09 09:16:26;;;;;;;10.98;4.50;;;17.50;99.90;;;;;;5057292;28;20056;-68
2022/09/09 09:18:52;;;;;;;14.77;4.63;;;17.70;99.90;;;;;;5061852;28;20575;-69
2022/09/09 09:21:40;;;;;;;11.57;4.78;;;17.90;99.90;;;;;;5055025;28;20055;-68
2022/09/09 09:24:16;;;;;;;13.77;3.85;;;17.90;99.90;;;;;;5050394;28;20060;-68
2022/09/09 09:26:43;;;;;;;12.70;3.85;;;18.00;99.90;;;;;;5059479;28;20052;-68
2022/09/09 09:29:15;;;;;;;15.27;4.00;;;18.00;99.90;;;;;;5061421;28;20089;-68
2022/09/09 09:32:03;;;;;;;11.45;3.60;;;18.10;99.90;;;;;;5063676;28;20497;-68
2022/09/09 09:34:29;;;;;;;12.55;3.28;;;18.10;99.90;;;;;;5059262;28;20123;-69
2022/09/09 09:36:57;;;;;;;10.40;3.00;;;18.00;99.90;;;;;;5062100;28;20463;-68
2022/09/09 09:39:28;;;;;;;10.13;3.30;;;17.90;99.90;;;;;;5064765;28;20036;-68
2022/09/09 09:41:54;;;;;;;8.57;2.92;;;17.90;99.90;;;;;;5061925;28;20505;-69
2022/09/09 09:44:29;;;;;;;8.27;2.85;;;17.90;99.90;;;;;;5059798;28;20088;-69
2022/09/09 09:47:15;;;;;;;12.07;3.05;;;17.90;99.90;;;;;;5061870;28;20505;-69
2022/09/09 09:49:59;;;;;;;10.38;3.05;;;17.80;99.90;;;;;;5045223;28;20047;-69
2022/09/09 09:52:30;;;;;;;10.55;3.25;;;17.80;99.90;;;;;;5059804;28;20632;-69
2022/09/09 09:54:57;;;;;;;14.27;3.45;;;17.80;99.90;;;;;;5042946;28;20048;-69
2022/09/09 09:57:28;;;;;;;11.15;2.75;;;17.80;99.90;;;;;;5059150;28;20714;-69
2022/09/09 10:00:22;;;;;;;11.80;3.00;;;17.70;99.90;;;;;;5058131;28;20048;-69
2022/09/09 10:02:51;;;;;;;12.40;2.75;;;17.70;99.90;;;;;;5041056;28;20044;-69
2022/09/09 10:05:28;;;;;;;12.95;2.58;;;17.70;99.90;;;;;;5045728;28;20495;-69
2022/09/09 10:08:20;;;;;;;11.15;3.13;;;17.70;99.90;;;;;;5061328;28;20249;-68
2022/09/09 10:10:52;;;;;;;13.15;3.10;;;17.60;99.90;;;;;;5058705;28;20051;-68
2022/09/09 10:13:36;;;;;;;12.32;3.03;;;17.70;99.90;;;;;;5063831;28;20040;-69
2022/09/09 10:16:26;;;;;;;12.15;3.15;;;17.60;99.90;;;;;;5063344;28;20636;-68
2022/09/09 10:19:04;;;;;;;12.85;2.55;;;17.60;99.90;;;;;;5065543;28;20044;-69
2022/09/09 10:21:38;;;;;;;8.90;2.85;;;17.60;99.90;;;;;;5054312;28;20717;-68
2022/09/09 10:24:22;;;;;;;11.70;3.15;;;17.60;99.90;;;;;;5060867;28;20036;-69
2022/09/09 10:27:09;;;;;;;12.25;2.63;;;17.60;99.90;;;;;;5060141;28;20103;-69
2022/09/09 10:29:55;;;;;;;14.98;3.22;;;17.60;99.90;;;;;;5061892;28;20040;-69
2022/09/09 10:32:20;;;;;;;9.50;2.45;;;17.60;99.90;;;;;;5053633;28;20064;-69
2022/09/09 10:35:01;;;;;;;10.90;2.38;;;17.60;99.90;;;;;;5056489;28;20048;-69
2022/09/09 10:37:33;;;;;;;13.35;3.00;;;17.60;99.90;;;;;;5061460;28;20052;-69
2022/09/09 10:40:21;;;;;;;9.23;3.05;;;17.60;99.90;;;;;;5060415;28;20064;-69
2022/09/09 10:42:47;;;;;;;10.18;2.72;;;17.70;99.90;;;;;;5023337;28;21397;-69
2022/09/09 10:45:23;;;;;;;11.80;2.83;;;17.80;99.90;;;;;;5062014;28;20037;-69
2022/09/09 10:48:02;;;;;;;7.35;2.17;;;17.80;99.90;;;;;;5054105;28;20060;-69
2022/09/09 10:50:34;;;;;;;7.93;2.17;;;17.90;99.90;;;;;;5064634;28;20063;-69
2022/09/09 10:53:31;;;;;;;7.43;2.10;;;17.90;99.90;;;;;;5058342;28;20082;-70
2022/09/09 10:56:20;;;;;;;8.32;1.65;;;18.00;99.90;;;;;;5063795;28;20098;-69
2022/09/09 10:59:02;;;;;;;10.07;1.83;;;18.00;99.90;;;;;;5057614;28;20060;-71
2022/09/09 11:01:33;;;;;;;11.32;2.58;;;18.10;99.90;;;;;;5058449;28;20037;-70
2022/09/09 11:04:10;;;;;;;;;;;18.20;99.90;;;;;;5060308;28;20072;-71
2022/09/09 11:06:42;;;;;;;7.90;2.10;;;18.30;99.90;;;;;;5074086;28;19943;-71
2022/09/09 11:09:17;;;;;;;8.90;2.10;;;18.40;99.90;;;;;;5039445;28;20737;-70
2022/09/09 11:11:52;;;;;;;6.30;1.42;;;18.30;99.90;;;;;;5069840;28;20049;-70
2022/09/09 11:14:26;;;;;;;13.27;2.70;;;18.40;99.90;;;;;;5053508;28;20047;-69
2022/09/09 11:17:12;;;;;;;11.88;2.13;;;18.50;99.90;;;;;;5057886;28;20098;-70
2022/09/09 11:19:40;;;;;;;14.18;2.92;;;18.50;99.90;;;;;;5040927;28;20102;-69
2022/09/09 11:22:36;;;;;;;9.73;2.08;;;18.60;99.90;;;;;;5061727;28;20043;-69
2022/09/09 11:25:08;;;;;;;7.68;1.63;;;18.70;99.90;;;;;;5058730;28;20058;-69
2022/09/09 11:27:36;;;;;;;8.68;1.65;;;18.70;99.90;;;;;;5055393;28;20105;-69
2022/09/09 11:30:21;;;;;;;7.90;1.90;;;18.80;99.90;;;;;;5060775;28;20131;-70
2022/09/09 11:33:08;;;;;;;7.32;1.45;;;18.80;99.90;;;;;;5056537;28;20103;-70
2022/09/09 11:35:53;;;;;;;6.90;1.83;;;18.90;99.90;;;;;;5061158;28;20044;-70
2022/09/09 11:38:32;;;;;;;8.68;1.70;;;18.90;99.90;;;;;;5071086;28;20052;-70
2022/09/09 11:41:06;;;;;;;7.93;1.88;;;19.00;99.90;;;;;;5060986;28;20045;-69
2022/09/09 11:43:40;;;;;;;11.93;2.00;;;19.00;99.90;;;;;;5044964;28;20033;-70
2022/09/09 11:46:07;;;;;;;6.20;1.58;;;19.00;99.90;;;;;;5044599;28;20044;-70
2022/09/09 11:48:43;;;;;;;10.90;1.90;;;19.10;99.90;;;;;;5059514;28;20071;-70
2022/09/09 11:51:25;;;;;;;11.15;1.73;;;19.20;99.90;;;;;;5055108;28;20048;-70
2022/09/09 11:53:55;;;;;;;7.13;1.63;;;19.20;99.90;;;;;;5061018;28;20554;-71
2022/09/09 11:56:33;;;;;;;8.15;1.65;;;19.30;99.90;;;;;;5059864;28;20048;-69
2022/09/09 11:59:20;;;;;;;9.07;1.55;;;19.30;99.90;;;;;;5062944;28;20082;-70
2022/09/09 12:01:59;;;;;;;8.32;1.80;;;19.40;99.90;;;;;;5063760;28;20044;-71
2022/09/09 12:04:28;;;;;;;6.85;1.80;;;19.40;99.90;;;;;;5062005;28;20071;-70
2022/09/09 12:07:02;;;;;;;9.88;1.90;;;19.50;99.90;;;;;;5054525;28;20047;-70
2022/09/09 12:09:43;;;;;;;10.90;1.95;;;19.50;99.90;;;;;;5072204;28;20040;-71
2022/09/09 12:12:11;;;;;;;5.85;1.30;;;19.40;99.90;;;;;;5062772;28;20036;-69
2022/09/09 12:14:41;;;;;;;9.57;1.73;;;19.50;99.90;;;;;;5059405;28;20056;-70
2022/09/09 12:17:16;;;;;;;8.37;2.00;;;19.40;99.90;;;;;;5061879;28;20068;-70
2022/09/09 12:19:44;;;;;;;10.93;1.70;;;19.50;99.90;;;;;;5061514;28;20047;-69
2022/09/09 12:22:11;;;;;;;8.27;2.10;;;19.40;99.90;;;;;;5061088;28;20044;-70
2022/09/09 12:24:41;;;;;;;7.80;2.03;;;19.40;99.90;;;;;;5044491;28;20047;-70
2022/09/09 12:27:16;;;;;;;9.15;1.80;;;19.30;99.90;;;;;;5060615;28;20048;-70
2022/09/09 12:29:55;;;;;;;10.05;1.75;;;19.30;99.90;;;;;;5061458;28;20468;-70
2022/09/09 12:32:24;;;;;;;10.98;1.58;;;19.30;99.90;;;;;;5060000;28;20051;-70
2022/09/09 12:34:55;;;;;;;8.32;2.15;;;19.20;99.90;;;;;;5060580;28;20102;-70
2022/09/09 12:37:37;;;;;;;8.88;1.45;;;19.20;99.90;;;;;;5059542;28;20566;-69
2022/09/09 12:40:20;;;;;;;8.40;2.03;;;19.30;99.90;;;;;;5045604;28;20029;-72
2022/09/09 12:42:46;;;;;;;13.98;2.75;;;19.40;99.90;;;;;;5062848;28;20729;-70
2022/09/09 12:45:17;;;;;;;6.75;1.77;;;19.40;99.90;;;;;;5058316;28;20052;-70
2022/09/09 12:47:58;;;;;;;10.00;1.92;;;19.40;99.90;;;;;;5059084;28;20047;-70
2022/09/09 12:50:29;;;;;;;9.15;2.22;;;19.40;99.90;;;;;;5076568;28;20068;-70
2022/09/09 12:53:26;;;;;;;9.75;1.88;;;19.40;99.90;;;;;;5060447;28;20044;-70
2022/09/09 12:56:02;;;;;;;7.72;1.48;;;19.50;99.90;;;;;;5058798;28;20084;-70
2022/09/09 12:58:32;;;;;;;11.48;1.77;;;19.50;99.90;;;;;;5058991;28;20458;-70
2022/09/09 13:00:59;;;;;;;8.82;1.48;;;19.50;99.90;;;;;;5062483;28;20048;-70
2022/09/09 13:03:26;;;;;;;9.30;2.17;;;19.50;99.90;;;;;;5069172;28;20072;-70
2022/09/09 13:05:53;;;;;;;8.43;1.45;;;19.50;99.90;;;;;;5058173;28;20094;-70